sensor_id;sensor_type;location;lat;lon;timestamp;P1;durP1;ratioP1;P2;durP2;ratioP2
39362;SDS011;25088;43.238;23.110;2023-01-16T08:28:39;0.30;;;0.30;;
39362;SDS011;25088;43.238;23.110;2023-01-16T08:31:09;0.30;;;0.30;;
39362;SDS011;25088;43.238;23.110;2023-01-16T08:33:38;0.30;;;0.30;;
39362;SDS011;25088;43.238;23.110;2023-01-16T08:36:05;0.30;;;0.30;;
39362;SDS011;25088;43.238;23.110;2023-01-16T08:38:32;0.30;;;0.30;;
39362;SDS011;25088;43.238;23.110;2023-01-16T08:40:57;0.30;;;0.30;;
39362;SDS011;25088;43.238;23.110;2023-01-16T08:43:23;0.22;;;0.22;;
39362;SDS011;25088;43.238;23.110;2023-01-16T08:46:16;0.30;;;0.30;;
39362;SDS011;25088;43.238;23.110;2023-01-16T08:49:05;0.30;;;0.30;;
39362;SDS011;25088;43.238;23.110;2023-01-16T08:51:55;0.30;;;0.30;;
39362;SDS011;25088;43.238;23.110;2023-01-16T08:54:21;0.20;;;0.20;;
39362;SDS011;25088;43.238;23.110;2023-01-16T08:56:47;0.30;;;0.30;;
39362;SDS011;25088;43.238;23.110;2023-01-16T08:59:12;0.20;;;0.20;;
39362;SDS011;25088;43.238;23.110;2023-01-16T09:01:38;0.20;;;0.20;;
39362;SDS011;25088;43.238;23.110;2023-01-16T09:04:04;0.25;;;0.25;;
39362;SDS011;25088;43.238;23.110;2023-01-16T09:06:30;0.22;;;0.22;;
39362;SDS011;25088;43.238;23.110;2023-01-16T09:08:56;0.22;;;0.22;;
39362;SDS011;25088;43.238;23.110;2023-01-16T09:11:21;0.20;;;0.20;;
39362;SDS011;25088;43.238;23.110;2023-01-16T09:14:05;0.30;;;0.30;;
39362;SDS011;25088;43.238;23.110;2023-01-16T09:16:31;0.20;;;0.20;;
39362;SDS011;25088;43.238;23.110;2023-01-16T09:18:56;0.20;;;0.20;;
39362;SDS011;25088;43.238;23.110;2023-01-16T09:21:22;0.20;;;0.20;;
39362;SDS011;25088;43.238;23.110;2023-01-16T09:23:49;0.20;;;0.20;;
39362;SDS011;25088;43.238;23.110;2023-01-16T09:26:15;0.20;;;0.20;;
39362;SDS011;25088;43.238;23.110;2023-01-16T09:28:41;0.20;;;0.20;;
39362;SDS011;25088;43.238;23.110;2023-01-16T09:31:07;0.20;;;0.20;;
39362;SDS011;25088;43.238;23.110;2023-01-16T09:33:32;0.20;;;0.20;;
39362;SDS011;25088;43.238;23.110;2023-01-16T09:35:58;0.20;;;0.20;;
39362;SDS011;25088;43.238;23.110;2023-01-16T09:38:23;0.20;;;0.20;;
39362;SDS011;25088;43.238;23.110;2023-01-16T09:40:52;0.20;;;0.20;;
39362;SDS011;25088;43.238;23.110;2023-01-16T09:46:22;0.20;;;0.20;;
39362;SDS011;25088;43.238;23.110;2023-01-16T09:48:54;0.20;;;0.20;;
39362;SDS011;25088;43.238;23.110;2023-01-16T09:51:44;0.20;;;0.20;;
39362;SDS011;25088;43.238;23.110;2023-01-16T09:54:36;0.20;;;0.20;;
39362;SDS011;25088;43.238;23.110;2023-01-16T09:57:24;0.20;;;0.20;;
39362;SDS011;25088;43.238;23.110;2023-01-16T10:00:13;0.20;;;0.20;;
39362;SDS011;25088;43.238;23.110;2023-01-16T10:02:41;0.20;;;0.20;;
39362;SDS011;25088;43.238;23.110;2023-01-16T10:05:08;0.20;;;0.20;;
39362;SDS011;25088;43.238;23.110;2023-01-16T10:13:08;0.20;;;0.20;;
39362;SDS011;25088;43.238;23.110;2023-01-16T10:28:59;0.17;;;0.17;;
39362;SDS011;25088;43.238;23.110;2023-01-16T10:36:39;0.20;;;0.20;;
39362;SDS011;25088;43.238;23.110;2023-01-16T10:39:10;0.10;;;0.10;;
39362;SDS011;25088;43.238;23.110;2023-01-16T10:41:41;0.10;;;0.10;;
39362;SDS011;25088;43.238;23.110;2023-01-16T10:47:23;0.10;;;0.10;;
39362;SDS011;25088;43.238;23.110;2023-01-16T10:50:14;0.10;;;0.10;;
39362;SDS011;25088;43.238;23.110;2023-01-16T10:52:41;0.15;;;0.15;;
39362;SDS011;25088;43.238;23.110;2023-01-16T10:55:08;0.10;;;0.10;;
39362;SDS011;25088;43.238;23.110;2023-01-16T10:57:43;0.10;;;0.10;;
39362;SDS011;25088;43.238;23.110;2023-01-16T11:00:14;0.10;;;0.10;;
39362;SDS011;25088;43.238;23.110;2023-01-16T11:02:50;0.13;;;0.13;;
39362;SDS011;25088;43.238;23.110;2023-01-16T11:05:30;0.10;;;0.10;;
39362;SDS011;25088;43.238;23.110;2023-01-16T11:08:05;0.10;;;0.10;;
39362;SDS011;25088;43.238;23.110;2023-01-16T11:10:40;0.10;;;0.10;;
39362;SDS011;25088;43.238;23.110;2023-01-16T11:13:17;0.10;;;0.10;;
39362;SDS011;25088;43.238;23.110;2023-01-16T11:18:54;0.10;;;0.10;;
39362;SDS011;25088;43.238;23.110;2023-01-16T11:21:28;0.10;;;0.10;;
39362;SDS011;25088;43.238;23.110;2023-01-16T11:23:59;0.10;;;0.10;;
39362;SDS011;25088;43.238;23.110;2023-01-16T11:26:28;0.10;;;0.10;;
39362;SDS011;25088;43.238;23.110;2023-01-16T11:28:56;0.10;;;0.10;;
39362;SDS011;25088;43.238;23.110;2023-01-16T11:31:23;0.10;;;0.10;;
39362;SDS011;25088;43.238;23.110;2023-01-16T11:33:55;0.10;;;0.10;;
39362;SDS011;25088;43.238;23.110;2023-01-16T11:36:26;0.10;;;0.10;;
39362;SDS011;25088;43.238;23.110;2023-01-16T11:38:56;0.00;;;0.00;;
39362;SDS011;25088;43.238;23.110;2023-01-16T11:41:24;0.00;;;0.00;;
39362;SDS011;25088;43.238;23.110;2023-01-16T11:44:13;0.10;;;0.10;;
39362;SDS011;25088;43.238;23.110;2023-01-16T11:47:10;0.10;;;0.10;;
39362;SDS011;25088;43.238;23.110;2023-01-16T11:49:56;0.10;;;0.10;;
39362;SDS011;25088;43.238;23.110;2023-01-16T11:52:22;0.10;;;0.10;;
39362;SDS011;25088;43.238;23.110;2023-01-16T11:54:59;0.10;;;0.10;;
39362;SDS011;25088;43.238;23.110;2023-01-16T11:57:34;0.10;;;0.10;;
39362;SDS011;25088;43.238;23.110;2023-01-16T12:00:26;0.10;;;0.10;;
39362;SDS011;25088;43.238;23.110;2023-01-16T12:11:59;0.10;;;0.10;;
39362;SDS011;25088;43.238;23.110;2023-01-16T12:14:49;0.10;;;0.10;;
39362;SDS011;25088;43.238;23.110;2023-01-16T12:20:14;0.10;;;0.10;;
39362;SDS011;25088;43.238;23.110;2023-01-16T12:25:52;0.10;;;0.10;;
39362;SDS011;25088;43.238;23.110;2023-01-16T12:28:30;0.10;;;0.10;;
39362;SDS011;25088;43.238;23.110;2023-01-16T12:36:47;0.10;;;0.10;;
39362;SDS011;25088;43.238;23.110;2023-01-16T12:39:34;0.10;;;0.10;;
39362;SDS011;25088;43.238;23.110;2023-01-16T12:42:20;0.10;;;0.10;;
39362;SDS011;25088;43.238;23.110;2023-01-16T12:56:50;0.10;;;0.10;;
39362;SDS011;25088;43.238;23.110;2023-01-16T13:01:52;0.10;;;0.10;;
39362;SDS011;25088;43.238;23.110;2023-01-16T13:04:26;0.10;;;0.10;;
39362;SDS011;25088;43.238;23.110;2023-01-16T13:06:58;0.10;;;0.10;;
39362;SDS011;25088;43.238;23.110;2023-01-16T13:12:00;0.10;;;0.10;;
39362;SDS011;25088;43.238;23.110;2023-01-16T13:14:52;0.10;;;0.10;;
39362;SDS011;25088;43.238;23.110;2023-01-16T13:17:22;0.10;;;0.10;;
39362;SDS011;25088;43.238;23.110;2023-01-16T13:20:01;0.10;;;0.10;;
39362;SDS011;25088;43.238;23.110;2023-01-16T13:22:33;0.10;;;0.10;;
39362;SDS011;25088;43.238;23.110;2023-01-16T13:25:21;0.10;;;0.10;;
39362;SDS011;25088;43.238;23.110;2023-01-16T13:27:57;0.10;;;0.10;;
39362;SDS011;25088;43.238;23.110;2023-01-16T13:30:27;0.10;;;0.10;;
39362;SDS011;25088;43.238;23.110;2023-01-16T13:35:50;0.10;;;0.10;;
39362;SDS011;25088;43.238;23.110;2023-01-16T13:38:55;0.10;;;0.10;;
39362;SDS011;25088;43.238;23.110;2023-01-16T13:41:39;0.10;;;0.10;;
39362;SDS011;25088;43.238;23.110;2023-01-16T13:44:18;0.10;;;0.10;;
39362;SDS011;25088;43.238;23.110;2023-01-16T13:47:07;0.10;;;0.10;;
39362;SDS011;25088;43.238;23.110;2023-01-16T13:49:39;0.10;;;0.10;;
39362;SDS011;25088;43.238;23.110;2023-01-16T13:52:11;0.10;;;0.10;;
39362;SDS011;25088;43.238;23.110;2023-01-16T13:54:45;0.10;;;0.10;;
39362;SDS011;25088;43.238;23.110;2023-01-16T13:57:20;0.10;;;0.10;;
39362;SDS011;25088;43.238;23.110;2023-01-16T13:59:48;0.10;;;0.10;;
39362;SDS011;25088;43.238;23.110;2023-01-16T14:23:53;0.10;;;0.10;;
39362;SDS011;25088;43.238;23.110;2023-01-16T14:26:32;0.10;;;0.10;;
39362;SDS011;25088;43.238;23.110;2023-01-16T14:28:59;0.10;;;0.10;;
39362;SDS011;25088;43.238;23.110;2023-01-16T14:31:42;0.10;;;0.10;;
39362;SDS011;25088;43.238;23.110;2023-01-16T14:34:20;0.20;;;0.20;;
39362;SDS011;25088;43.238;23.110;2023-01-16T14:36:51;0.20;;;0.20;;
39362;SDS011;25088;43.238;23.110;2023-01-16T14:42:13;0.20;;;0.20;;
39362;SDS011;25088;43.238;23.110;2023-01-16T14:56:49;0.20;;;0.20;;
39362;SDS011;25088;43.238;23.110;2023-01-16T14:59:20;0.20;;;0.20;;
39362;SDS011;25088;43.238;23.110;2023-01-16T15:04:55;0.20;;;0.20;;
39362;SDS011;25088;43.238;23.110;2023-01-16T15:10:00;0.20;;;0.20;;
39362;SDS011;25088;43.238;23.110;2023-01-16T15:12:39;0.20;;;0.20;;
39362;SDS011;25088;43.238;23.110;2023-01-16T15:15:18;0.20;;;0.20;;
39362;SDS011;25088;43.238;23.110;2023-01-16T15:17:52;0.20;;;0.20;;
39362;SDS011;25088;43.238;23.110;2023-01-16T15:20:38;0.20;;;0.20;;
39362;SDS011;25088;43.238;23.110;2023-01-16T15:28:50;0.20;;;0.20;;
39362;SDS011;25088;43.238;23.110;2023-01-16T15:31:40;0.20;;;0.20;;
39362;SDS011;25088;43.238;23.110;2023-01-16T15:36:42;0.10;;;0.10;;
39362;SDS011;25088;43.238;23.110;2023-01-16T15:41:55;0.20;;;0.20;;
39362;SDS011;25088;43.238;23.110;2023-01-16T15:44:59;0.20;;;0.20;;
39362;SDS011;25088;43.238;23.110;2023-01-16T15:51:11;0.20;;;0.20;;
39362;SDS011;25088;43.238;23.110;2023-01-16T15:53:44;0.20;;;0.20;;
39362;SDS011;25088;43.238;23.110;2023-01-16T15:56:19;0.20;;;0.20;;
39362;SDS011;25088;43.238;23.110;2023-01-16T15:58:48;0.20;;;0.20;;
39362;SDS011;25088;43.238;23.110;2023-01-16T16:01:23;0.20;;;0.20;;
39362;SDS011;25088;43.238;23.110;2023-01-16T16:03:59;0.20;;;0.20;;
39362;SDS011;25088;43.238;23.110;2023-01-16T16:06:28;0.20;;;0.20;;
39362;SDS011;25088;43.238;23.110;2023-01-16T16:08:55;0.20;;;0.20;;
39362;SDS011;25088;43.238;23.110;2023-01-16T16:11:25;0.20;;;0.20;;
39362;SDS011;25088;43.238;23.110;2023-01-16T16:14:15;0.20;;;0.20;;
39362;SDS011;25088;43.238;23.110;2023-01-16T16:17:03;0.20;;;0.20;;
39362;SDS011;25088;43.238;23.110;2023-01-16T16:20:22;0.20;;;0.20;;
39362;SDS011;25088;43.238;23.110;2023-01-16T16:25:57;0.20;;;0.20;;
39362;SDS011;25088;43.238;23.110;2023-01-16T16:31:23;0.10;;;0.10;;
39362;SDS011;25088;43.238;23.110;2023-01-16T16:33:59;0.20;;;0.20;;
39362;SDS011;25088;43.238;23.110;2023-01-16T16:36:42;0.10;;;0.10;;
39362;SDS011;25088;43.238;23.110;2023-01-16T16:45:10;0.10;;;0.10;;
39362;SDS011;25088;43.238;23.110;2023-01-16T16:50:37;0.10;;;0.10;;
39362;SDS011;25088;43.238;23.110;2023-01-16T16:53:09;0.10;;;0.10;;
39362;SDS011;25088;43.238;23.110;2023-01-16T16:55:38;0.10;;;0.10;;
39362;SDS011;25088;43.238;23.110;2023-01-16T16:58:05;0.10;;;0.10;;
39362;SDS011;25088;43.238;23.110;2023-01-16T17:00:38;0.10;;;0.10;;
39362;SDS011;25088;43.238;23.110;2023-01-16T17:03:11;0.10;;;0.10;;
39362;SDS011;25088;43.238;23.110;2023-01-16T17:05:40;0.10;;;0.10;;
39362;SDS011;25088;43.238;23.110;2023-01-16T17:08:06;0.10;;;0.10;;
39362;SDS011;25088;43.238;23.110;2023-01-16T17:10:31;0.10;;;0.10;;
39362;SDS011;25088;43.238;23.110;2023-01-16T17:12:57;0.10;;;0.10;;
39362;SDS011;25088;43.238;23.110;2023-01-16T17:15:23;0.10;;;0.10;;
39362;SDS011;25088;43.238;23.110;2023-01-16T17:17:49;0.20;;;0.20;;
39362;SDS011;25088;43.238;23.110;2023-01-16T17:20:21;0.10;;;0.10;;
39362;SDS011;25088;43.238;23.110;2023-01-16T17:22:48;0.10;;;0.10;;
39362;SDS011;25088;43.238;23.110;2023-01-16T17:25:14;0.10;;;0.10;;
39362;SDS011;25088;43.238;23.110;2023-01-16T17:27:48;0.10;;;0.10;;
39362;SDS011;25088;43.238;23.110;2023-01-16T17:30:15;0.10;;;0.10;;
39362;SDS011;25088;43.238;23.110;2023-01-16T17:32:41;0.20;;;0.20;;
39362;SDS011;25088;43.238;23.110;2023-01-16T17:35:17;0.10;;;0.10;;
39362;SDS011;25088;43.238;23.110;2023-01-16T17:37:42;0.10;;;0.10;;
39362;SDS011;25088;43.238;23.110;2023-01-16T17:40:08;0.10;;;0.10;;
39362;SDS011;25088;43.238;23.110;2023-01-16T17:42:35;0.10;;;0.10;;
39362;SDS011;25088;43.238;23.110;2023-01-16T17:45:28;0.10;;;0.10;;
39362;SDS011;25088;43.238;23.110;2023-01-16T17:48:21;0.20;;;0.20;;
39362;SDS011;25088;43.238;23.110;2023-01-16T17:50:49;0.10;;;0.10;;
39362;SDS011;25088;43.238;23.110;2023-01-16T17:53:16;0.10;;;0.10;;
39362;SDS011;25088;43.238;23.110;2023-01-16T17:55:44;0.10;;;0.10;;
39362;SDS011;25088;43.238;23.110;2023-01-16T17:58:38;0.10;;;0.10;;
39362;SDS011;25088;43.238;23.110;2023-01-16T18:01:14;0.10;;;0.10;;
39362;SDS011;25088;43.238;23.110;2023-01-16T18:03:46;0.10;;;0.10;;
39362;SDS011;25088;43.238;23.110;2023-01-16T18:06:16;0.10;;;0.10;;
39362;SDS011;25088;43.238;23.110;2023-01-16T18:08:41;0.10;;;0.10;;
39362;SDS011;25088;43.238;23.110;2023-01-16T18:11:07;0.10;;;0.10;;
39362;SDS011;25088;43.238;23.110;2023-01-16T18:13:51;0.10;;;0.10;;
39362;SDS011;25088;43.238;23.110;2023-01-16T18:16:35;0.10;;;0.10;;
39362;SDS011;25088;43.238;23.110;2023-01-16T18:19:40;0.10;;;0.10;;
39362;SDS011;25088;43.238;23.110;2023-01-16T18:22:05;0.10;;;0.10;;
39362;SDS011;25088;43.238;23.110;2023-01-16T18:24:32;0.10;;;0.10;;
39362;SDS011;25088;43.238;23.110;2023-01-16T18:27:00;0.10;;;0.10;;
39362;SDS011;25088;43.238;23.110;2023-01-16T18:29:27;0.10;;;0.10;;
39362;SDS011;25088;43.238;23.110;2023-01-16T18:31:53;0.10;;;0.10;;
39362;SDS011;25088;43.238;23.110;2023-01-16T18:34:37;0.10;;;0.10;;
39362;SDS011;25088;43.238;23.110;2023-01-16T18:37:03;0.10;;;0.10;;
39362;SDS011;25088;43.238;23.110;2023-01-16T18:39:29;0.10;;;0.10;;
39362;SDS011;25088;43.238;23.110;2023-01-16T18:42:13;0.10;;;0.10;;
39362;SDS011;25088;43.238;23.110;2023-01-16T18:44:57;0.10;;;0.10;;
39362;SDS011;25088;43.238;23.110;2023-01-16T18:47:41;0.10;;;0.10;;
39362;SDS011;25088;43.238;23.110;2023-01-16T18:50:25;0.10;;;0.10;;
39362;SDS011;25088;43.238;23.110;2023-01-16T18:53:18;0.10;;;0.10;;
39362;SDS011;25088;43.238;23.110;2023-01-16T18:56:17;0.10;;;0.10;;
39362;SDS011;25088;43.238;23.110;2023-01-16T18:59:14;0.10;;;0.10;;
39362;SDS011;25088;43.238;23.110;2023-01-16T19:04:39;0.10;;;0.10;;
39362;SDS011;25088;43.238;23.110;2023-01-16T19:07:06;0.10;;;0.10;;
39362;SDS011;25088;43.238;23.110;2023-01-16T19:09:34;0.10;;;0.10;;
39362;SDS011;25088;43.238;23.110;2023-01-16T19:12:01;0.10;;;0.10;;
39362;SDS011;25088;43.238;23.110;2023-01-16T19:14:30;0.10;;;0.10;;
39362;SDS011;25088;43.238;23.110;2023-01-16T19:16:59;0.10;;;0.10;;
39362;SDS011;25088;43.238;23.110;2023-01-16T19:19:25;0.10;;;0.10;;
39362;SDS011;25088;43.238;23.110;2023-01-16T19:21:52;0.10;;;0.10;;
39362;SDS011;25088;43.238;23.110;2023-01-16T19:24:18;0.10;;;0.10;;
39362;SDS011;25088;43.238;23.110;2023-01-16T19:26:44;0.10;;;0.10;;
39362;SDS011;25088;43.238;23.110;2023-01-16T19:29:11;0.10;;;0.10;;
39362;SDS011;25088;43.238;23.110;2023-01-16T19:31:38;0.10;;;0.10;;
39362;SDS011;25088;43.238;23.110;2023-01-16T19:34:05;0.10;;;0.10;;
39362;SDS011;25088;43.238;23.110;2023-01-16T19:36:31;0.10;;;0.10;;
39362;SDS011;25088;43.238;23.110;2023-01-16T19:38:56;0.10;;;0.10;;
39362;SDS011;25088;43.238;23.110;2023-01-16T19:41:25;0.10;;;0.10;;
39362;SDS011;25088;43.238;23.110;2023-01-16T19:44:09;0.10;;;0.10;;
39362;SDS011;25088;43.238;23.110;2023-01-16T19:46:53;0.10;;;0.10;;
39362;SDS011;25088;43.238;23.110;2023-01-16T19:49:19;0.10;;;0.10;;
39362;SDS011;25088;43.238;23.110;2023-01-16T19:51:45;0.15;;;0.15;;
39362;SDS011;25088;43.238;23.110;2023-01-16T19:54:10;0.10;;;0.10;;
39362;SDS011;25088;43.238;23.110;2023-01-16T19:56:36;0.10;;;0.10;;
39362;SDS011;25088;43.238;23.110;2023-01-16T19:59:03;0.10;;;0.10;;
39362;SDS011;25088;43.238;23.110;2023-01-16T20:01:51;0.10;;;0.10;;
39362;SDS011;25088;43.238;23.110;2023-01-16T20:04:19;0.10;;;0.10;;
39362;SDS011;25088;43.238;23.110;2023-01-16T20:06:49;0.10;;;0.10;;
39362;SDS011;25088;43.238;23.110;2023-01-16T20:09:15;0.10;;;0.10;;
39362;SDS011;25088;43.238;23.110;2023-01-16T20:11:41;0.10;;;0.10;;
39362;SDS011;25088;43.238;23.110;2023-01-16T20:14:25;0.10;;;0.10;;
39362;SDS011;25088;43.238;23.110;2023-01-16T20:16:51;0.10;;;0.10;;
39362;SDS011;25088;43.238;23.110;2023-01-16T20:19:17;0.10;;;0.10;;
39362;SDS011;25088;43.238;23.110;2023-01-16T20:21:43;0.10;;;0.10;;
39362;SDS011;25088;43.238;23.110;2023-01-16T20:24:08;0.10;;;0.10;;
39362;SDS011;25088;43.238;23.110;2023-01-16T20:26:34;0.10;;;0.10;;
39362;SDS011;25088;43.238;23.110;2023-01-16T20:29:00;0.10;;;0.10;;
39362;SDS011;25088;43.238;23.110;2023-01-16T20:31:27;0.10;;;0.10;;
39362;SDS011;25088;43.238;23.110;2023-01-16T20:33:56;0.10;;;0.10;;
39362;SDS011;25088;43.238;23.110;2023-01-16T20:36:23;0.10;;;0.10;;
39362;SDS011;25088;43.238;23.110;2023-01-16T20:38:53;0.10;;;0.10;;
39362;SDS011;25088;43.238;23.110;2023-01-16T20:41:19;0.10;;;0.10;;
39362;SDS011;25088;43.238;23.110;2023-01-16T20:44:05;0.10;;;0.10;;
39362;SDS011;25088;43.238;23.110;2023-01-16T20:46:57;0.10;;;0.10;;
39362;SDS011;25088;43.238;23.110;2023-01-16T20:49:22;0.10;;;0.10;;
39362;SDS011;25088;43.238;23.110;2023-01-16T20:51:49;0.10;;;0.10;;
39362;SDS011;25088;43.238;23.110;2023-01-16T20:54:14;0.10;;;0.10;;
39362;SDS011;25088;43.238;23.110;2023-01-16T20:56:40;0.10;;;0.10;;
39362;SDS011;25088;43.238;23.110;2023-01-16T20:59:05;0.10;;;0.10;;
39362;SDS011;25088;43.238;23.110;2023-01-16T21:01:31;0.10;;;0.10;;
39362;SDS011;25088;43.238;23.110;2023-01-16T21:03:56;0.10;;;0.10;;
39362;SDS011;25088;43.238;23.110;2023-01-16T21:06:22;0.10;;;0.10;;
39362;SDS011;25088;43.238;23.110;2023-01-16T21:08:47;0.10;;;0.10;;
39362;SDS011;25088;43.238;23.110;2023-01-16T21:11:13;0.10;;;0.10;;
39362;SDS011;25088;43.238;23.110;2023-01-16T21:13:57;0.10;;;0.10;;
39362;SDS011;25088;43.238;23.110;2023-01-16T21:16:35;0.10;;;0.10;;
39362;SDS011;25088;43.238;23.110;2023-01-16T21:22:22;0.10;;;0.10;;
39362;SDS011;25088;43.238;23.110;2023-01-16T21:24:50;0.10;;;0.10;;
39362;SDS011;25088;43.238;23.110;2023-01-16T21:27:17;0.10;;;0.10;;
39362;SDS011;25088;43.238;23.110;2023-01-16T21:29:44;0.10;;;0.10;;
39362;SDS011;25088;43.238;23.110;2023-01-16T21:32:09;0.10;;;0.10;;
39362;SDS011;25088;43.238;23.110;2023-01-16T21:34:36;0.10;;;0.10;;
39362;SDS011;25088;43.238;23.110;2023-01-16T21:37:02;0.10;;;0.10;;
39362;SDS011;25088;43.238;23.110;2023-01-16T21:39:28;0.10;;;0.10;;
39362;SDS011;25088;43.238;23.110;2023-01-16T21:41:53;0.10;;;0.10;;
39362;SDS011;25088;43.238;23.110;2023-01-16T21:44:38;0.10;;;0.10;;
39362;SDS011;25088;43.238;23.110;2023-01-16T21:47:22;0.10;;;0.10;;
39362;SDS011;25088;43.238;23.110;2023-01-16T21:49:50;0.10;;;0.10;;
39362;SDS011;25088;43.238;23.110;2023-01-16T21:52:16;0.10;;;0.10;;
39362;SDS011;25088;43.238;23.110;2023-01-16T21:54:42;0.10;;;0.10;;
39362;SDS011;25088;43.238;23.110;2023-01-16T21:57:07;0.10;;;0.10;;
39362;SDS011;25088;43.238;23.110;2023-01-16T21:59:33;0.10;;;0.10;;
39362;SDS011;25088;43.238;23.110;2023-01-16T22:01:59;0.10;;;0.10;;
39362;SDS011;25088;43.238;23.110;2023-01-16T22:04:24;0.10;;;0.10;;
39362;SDS011;25088;43.238;23.110;2023-01-16T22:06:50;0.10;;;0.10;;
39362;SDS011;25088;43.238;23.110;2023-01-16T22:09:15;0.10;;;0.10;;
39362;SDS011;25088;43.238;23.110;2023-01-16T22:11:43;0.10;;;0.10;;
39362;SDS011;25088;43.238;23.110;2023-01-16T22:14:27;0.10;;;0.10;;
39362;SDS011;25088;43.238;23.110;2023-01-16T22:17:12;0.10;;;0.10;;
39362;SDS011;25088;43.238;23.110;2023-01-16T22:19:59;0.10;;;0.10;;
39362;SDS011;25088;43.238;23.110;2023-01-16T22:22:44;0.10;;;0.10;;
39362;SDS011;25088;43.238;23.110;2023-01-16T22:25:15;0.10;;;0.10;;
39362;SDS011;25088;43.238;23.110;2023-01-16T22:27:41;0.10;;;0.10;;
39362;SDS011;25088;43.238;23.110;2023-01-16T22:30:07;0.10;;;0.10;;
39362;SDS011;25088;43.238;23.110;2023-01-16T22:32:34;0.10;;;0.10;;
39362;SDS011;25088;43.238;23.110;2023-01-16T22:34:59;0.10;;;0.10;;
39362;SDS011;25088;43.238;23.110;2023-01-16T22:37:25;0.10;;;0.10;;
39362;SDS011;25088;43.238;23.110;2023-01-16T22:39:50;0.10;;;0.10;;
39362;SDS011;25088;43.238;23.110;2023-01-16T22:42:17;0.10;;;0.10;;
39362;SDS011;25088;43.238;23.110;2023-01-16T22:44:43;0.10;;;0.10;;
39362;SDS011;25088;43.238;23.110;2023-01-16T22:47:35;0.10;;;0.10;;
39362;SDS011;25088;43.238;23.110;2023-01-16T22:50:01;0.10;;;0.10;;
39362;SDS011;25088;43.238;23.110;2023-01-16T22:52:27;0.10;;;0.10;;
39362;SDS011;25088;43.238;23.110;2023-01-16T22:54:53;0.10;;;0.10;;
39362;SDS011;25088;43.238;23.110;2023-01-16T22:57:18;0.10;;;0.10;;
39362;SDS011;25088;43.238;23.110;2023-01-16T22:59:44;0.10;;;0.10;;
39362;SDS011;25088;43.238;23.110;2023-01-16T23:02:10;0.10;;;0.10;;
39362;SDS011;25088;43.238;23.110;2023-01-16T23:04:35;0.10;;;0.10;;
39362;SDS011;25088;43.238;23.110;2023-01-16T23:07:02;0.10;;;0.10;;
39362;SDS011;25088;43.238;23.110;2023-01-16T23:09:29;0.10;;;0.10;;
39362;SDS011;25088;43.238;23.110;2023-01-16T23:11:55;0.10;;;0.10;;
39362;SDS011;25088;43.238;23.110;2023-01-16T23:14:22;0.10;;;0.10;;
39362;SDS011;25088;43.238;23.110;2023-01-16T23:16:49;0.10;;;0.10;;
39362;SDS011;25088;43.238;23.110;2023-01-16T23:19:17;0.10;;;0.10;;
39362;SDS011;25088;43.238;23.110;2023-01-16T23:21:45;0.10;;;0.10;;
39362;SDS011;25088;43.238;23.110;2023-01-16T23:24:18;0.10;;;0.10;;
39362;SDS011;25088;43.238;23.110;2023-01-16T23:26:45;0.10;;;0.10;;
39362;SDS011;25088;43.238;23.110;2023-01-16T23:29:12;0.10;;;0.10;;
39362;SDS011;25088;43.238;23.110;2023-01-16T23:31:39;0.10;;;0.10;;
39362;SDS011;25088;43.238;23.110;2023-01-16T23:34:07;0.10;;;0.10;;
39362;SDS011;25088;43.238;23.110;2023-01-16T23:36:34;0.10;;;0.10;;
39362;SDS011;25088;43.238;23.110;2023-01-16T23:39:01;0.10;;;0.10;;
39362;SDS011;25088;43.238;23.110;2023-01-16T23:41:28;0.10;;;0.10;;
39362;SDS011;25088;43.238;23.110;2023-01-16T23:44:13;0.10;;;0.10;;
39362;SDS011;25088;43.238;23.110;2023-01-16T23:47:15;0.10;;;0.10;;
39362;SDS011;25088;43.238;23.110;2023-01-16T23:49:44;0.10;;;0.10;;
39362;SDS011;25088;43.238;23.110;2023-01-16T23:52:15;0.10;;;0.10;;
39362;SDS011;25088;43.238;23.110;2023-01-16T23:54:43;0.10;;;0.10;;
39362;SDS011;25088;43.238;23.110;2023-01-16T23:57:10;0.10;;;0.10;;
39362;SDS011;25088;43.238;23.110;2023-01-16T23:59:37;0.10;;;0.10;;
